createdAt,value
2022-10-08T00:01:56.442Z,97.18
2022-10-08T00:04:24.221Z,97.36
2022-10-08T00:06:52.131Z,97.05
2022-10-08T00:09:19.883Z,97.33
2022-10-08T00:11:47.642Z,97.07
2022-10-08T00:14:17.296Z,96.80
2022-10-08T00:16:45.204Z,96.67
2022-10-08T00:19:16.085Z,97.04
2022-10-08T00:21:46.123Z,96.92
2022-10-08T00:24:17.242Z,96.22
2022-10-08T00:26:45.495Z,95.91
2022-10-08T00:29:15.347Z,95.70
2022-10-08T00:31:46.908Z,96.05
2022-10-08T00:34:17.497Z,95.41
2022-10-08T00:36:47.345Z,95.11
2022-10-08T00:39:18.384Z,94.55
2022-10-08T00:41:48.305Z,95.29
2022-10-08T00:44:54.459Z,95.39
2022-10-08T00:47:36.463Z,95.73
2022-10-08T00:50:09.426Z,95.03
2022-10-08T00:52:42.528Z,95.45
2022-10-08T00:55:12.674Z,95.19
2022-10-08T00:57:42.810Z,95.50
2022-10-08T01:00:13.387Z,95.94
2022-10-08T01:02:42.733Z,96.78
2022-10-08T01:05:12.726Z,96.33
2022-10-08T01:07:49.339Z,95.81
2022-10-08T01:10:27.257Z,95.95
2022-10-08T01:13:11.263Z,95.33
2022-10-08T01:15:45.722Z,95.07
2022-10-08T01:18:23.319Z,94.96
2022-10-08T01:21:00.252Z,94.38
2022-10-08T01:23:43.093Z,94.30
2022-10-08T01:26:25.994Z,94.80
2022-10-08T01:29:02.730Z,95.24
2022-10-08T01:31:33.664Z,94.79
2022-10-08T01:34:07.823Z,94.88
2022-10-08T01:36:39.359Z,95.18
2022-10-08T01:39:11.716Z,95.59
2022-10-08T01:41:40.734Z,95.30
2022-10-08T01:44:16.363Z,94.93
2022-10-08T01:46:47.925Z,94.68
2022-10-08T01:49:19.585Z,94.78
2022-10-08T01:51:53.517Z,94.36
2022-10-08T01:54:23.057Z,93.84
2022-10-08T01:56:52.284Z,91.81
2022-10-08T01:59:25.419Z,90.77
2022-10-08T02:01:58.110Z,90.09
2022-10-08T02:04:35.186Z,90.55
2022-10-08T02:07:07.900Z,89.73
2022-10-08T02:09:38.690Z,89.87
2022-10-08T02:12:06.957Z,88.86
2022-10-08T02:14:39.005Z,89.07
2022-10-08T02:17:19.288Z,88.58
2022-10-08T02:19:54.353Z,88.96
2022-10-08T02:22:27.076Z,88.57
2022-10-08T02:25:01.797Z,88.86
2022-10-08T02:27:38.013Z,88.85
2022-10-08T02:30:11.033Z,89.61
2022-10-08T02:32:50.419Z,89.42
2022-10-08T02:35:25.191Z,89.50
2022-10-08T02:37:59.004Z,89.61
2022-10-08T02:40:28.362Z,89.49
2022-10-08T02:43:01.399Z,88.89
2022-10-08T02:45:35.560Z,89.34
2022-10-08T02:48:09.380Z,89.46
2022-10-08T02:50:40.863Z,89.21
2022-10-08T02:53:09.119Z,89.48
2022-10-08T02:55:43.102Z,89.33
2022-10-08T02:58:13.480Z,90.10
2022-10-08T03:00:49.952Z,90.29
2022-10-08T03:03:23.947Z,91.29
2022-10-08T03:05:52.720Z,91.82
2022-10-08T03:08:22.430Z,91.95
2022-10-08T03:10:51.028Z,91.87
2022-10-08T03:13:19.396Z,91.97
2022-10-08T03:15:52.303Z,92.06
2022-10-08T03:18:21.941Z,92.25
2022-10-08T03:20:51.820Z,92.55
2022-10-08T03:23:20.248Z,92.57
2022-10-08T03:25:47.997Z,92.61
2022-10-08T03:28:15.795Z,92.51
2022-10-08T03:30:44.820Z,93.18
2022-10-08T03:33:14.038Z,93.69
2022-10-08T03:35:45.819Z,94.01
2022-10-08T03:38:15.349Z,94.67
2022-10-08T03:40:43.214Z,95.91
2022-10-08T03:43:11.178Z,96.52
2022-10-08T03:45:38.899Z,97.58
2022-10-08T03:48:06.658Z,97.58
2022-10-08T03:50:35.790Z,96.75
2022-10-08T03:53:03.539Z,97.39
2022-10-08T03:55:31.309Z,97.54
2022-10-08T03:57:59.122Z,98.28
2022-10-08T04:00:26.926Z,98.55
2022-10-08T04:02:54.782Z,100.00
2022-10-08T04:05:22.601Z,99.93
2022-10-08T04:07:51.718Z,100.00
2022-10-08T04:10:19.424Z,100.00
2022-10-08T04:12:47.517Z,100.00
2022-10-08T04:15:15.537Z,100.00
2022-10-08T04:17:43.588Z,100.00
2022-10-08T04:20:12.861Z,100.00
2022-10-08T04:22:41.027Z,100.00
2022-10-08T04:25:10.502Z,100.00
2022-10-08T04:27:38.280Z,100.00
2022-10-08T04:30:07.430Z,100.00
2022-10-08T04:32:35.152Z,100.00
2022-10-08T04:35:02.949Z,100.00
2022-10-08T04:37:30.718Z,100.00
2022-10-08T04:39:58.593Z,100.00
2022-10-08T04:42:27.958Z,100.00
2022-10-08T04:44:55.706Z,100.00
2022-10-08T04:47:23.594Z,100.00
2022-10-08T04:49:51.336Z,100.00
2022-10-08T04:52:20.536Z,100.00
2022-10-08T04:54:48.539Z,100.00
2022-10-08T04:57:16.461Z,100.00
2022-10-08T05:00:13.130Z,100.00
2022-10-08T05:02:36.169Z,100.00
2022-10-08T05:05:04.193Z,100.00
2022-10-08T05:07:31.926Z,100.00
2022-10-08T05:09:59.731Z,100.00
2022-10-08T05:12:27.462Z,100.00
2022-10-08T05:14:56.585Z,100.00
2022-10-08T05:17:24.359Z,100.00
2022-10-08T05:19:52.824Z,100.00
2022-10-08T05:22:20.600Z,100.00
2022-10-08T05:24:48.384Z,100.00
2022-10-08T05:27:16.183Z,100.00
2022-10-08T05:29:43.982Z,100.00
2022-10-08T05:32:13.032Z,100.00
2022-10-08T05:34:40.856Z,100.00
2022-10-08T05:37:14.475Z,100.00
2022-10-08T05:39:42.228Z,100.00
2022-10-08T05:42:10.050Z,100.00
2022-10-08T05:44:37.993Z,100.00
2022-10-08T05:47:05.982Z,100.00
2022-10-08T05:49:35.062Z,100.00
2022-10-08T05:52:03.190Z,100.00
2022-10-08T05:54:30.945Z,100.00
2022-10-08T05:56:58.856Z,100.00
2022-10-08T05:59:26.635Z,100.00
2022-10-08T06:01:54.377Z,100.00
2022-10-08T06:04:22.381Z,100.00
2022-10-08T06:06:51.632Z,100.00
2022-10-08T06:09:21.497Z,100.00
2022-10-08T06:11:49.872Z,100.00
2022-10-08T06:14:19.222Z,100.00
2022-10-08T06:16:47.464Z,100.00
2022-10-08T06:19:15.635Z,100.00
2022-10-08T06:21:43.426Z,98.44
2022-10-08T06:24:13.250Z,97.72
2022-10-08T06:26:43.651Z,96.23
2022-10-08T06:29:14.945Z,96.16
2022-10-08T06:31:42.823Z,95.39
2022-10-08T06:34:10.716Z,95.68
2022-10-08T06:36:38.612Z,94.84
2022-10-08T06:39:08.947Z,94.55
2022-10-08T06:41:38.583Z,93.86
2022-10-08T06:44:08.555Z,93.89
2022-10-08T06:46:36.423Z,93.47
2022-10-08T06:49:05.977Z,94.26
2022-10-08T06:51:34.546Z,94.39
2022-10-08T06:54:07.378Z,93.79
2022-10-08T06:56:38.516Z,93.25
2022-10-08T06:59:07.328Z,92.59
2022-10-08T07:01:36.529Z,92.55
2022-10-08T07:04:06.678Z,92.53
2022-10-08T07:06:34.460Z,91.56
2022-10-08T07:09:03.260Z,90.88
2022-10-08T07:11:33.301Z,90.44
2022-10-08T07:14:02.622Z,90.12
2022-10-08T07:16:30.589Z,89.08
2022-10-08T07:18:59.352Z,88.81
2022-10-08T07:21:28.569Z,88.64
2022-10-08T07:23:56.996Z,88.28
2022-10-08T07:26:26.527Z,87.40
2022-10-08T07:28:56.879Z,86.62
2022-10-08T07:31:29.525Z,87.34
2022-10-08T07:33:58.127Z,87.47
2022-10-08T07:36:28.370Z,86.64
2022-10-08T07:38:57.173Z,86.72
2022-10-08T07:41:27.024Z,86.83
2022-10-08T07:43:57.778Z,86.58
2022-10-08T07:46:27.765Z,86.05
2022-10-08T07:48:56.866Z,86.10
2022-10-08T07:51:24.687Z,85.14
2022-10-08T07:53:52.934Z,84.99
2022-10-08T07:56:22.814Z,83.70
2022-10-08T07:58:51.660Z,83.27
2022-10-08T08:01:21.589Z,82.17
2022-10-08T08:03:55.560Z,82.24
2022-10-08T08:06:25.149Z,81.48
2022-10-08T08:08:53.535Z,81.14
2022-10-08T08:11:22.856Z,80.35
2022-10-08T08:13:51.152Z,78.97
2022-10-08T08:16:21.084Z,79.06
2022-10-08T08:18:50.274Z,79.43
2022-10-08T08:21:21.444Z,78.54
2022-10-08T08:23:59.700Z,75.82
2022-10-08T08:26:34.716Z,74.92
2022-10-08T08:29:05.683Z,73.94
2022-10-08T08:31:35.459Z,74.24
2022-10-08T08:34:08.262Z,74.16
2022-10-08T08:36:43.458Z,73.75
2022-10-08T08:39:18.521Z,72.58
2022-10-08T08:42:02.697Z,72.82
2022-10-08T08:44:35.648Z,71.50
2022-10-08T08:47:13.074Z,70.96
2022-10-08T08:49:43.611Z,70.50
2022-10-08T08:52:18.073Z,70.22
2022-10-08T08:54:49.502Z,68.62
2022-10-08T08:57:34.116Z,67.56
2022-10-08T09:00:09.954Z,66.25
2022-10-08T09:02:49.898Z,65.68
2022-10-08T09:05:25.165Z,64.14
2022-10-08T09:08:04.127Z,64.60
2022-10-08T09:10:44.766Z,65.02
2022-10-08T09:13:16.632Z,64.97
2022-10-08T09:15:47.518Z,64.79
2022-10-08T09:18:18.066Z,64.39
2022-10-08T09:20:46.646Z,64.96
2022-10-08T09:23:20.263Z,64.17
2022-10-08T09:25:53.755Z,64.47
2022-10-08T09:28:47.172Z,64.76
2022-10-08T09:31:26.176Z,63.22
2022-10-08T09:34:10.366Z,63.74
2022-10-08T09:36:44.666Z,63.34
2022-10-08T09:39:20.460Z,62.88
2022-10-08T09:42:07.132Z,62.93
2022-10-08T09:44:45.906Z,63.89
2022-10-08T09:47:17.203Z,63.49
2022-10-08T09:50:00.933Z,63.54
2022-10-08T09:52:38.058Z,63.14
2022-10-08T09:55:23.563Z,63.54
2022-10-08T09:57:59.270Z,63.38
2022-10-08T10:00:33.051Z,63.30
2022-10-08T10:03:26.521Z,62.48
2022-10-08T10:16:40.115Z,61.51
2022-10-08T10:19:27.963Z,61.21
2022-10-08T10:22:05.763Z,60.05
2022-10-08T10:24:54.429Z,61.05
2022-10-08T10:27:41.488Z,59.80
2022-10-08T10:31:29.980Z,60.45
2022-10-08T10:34:05.793Z,59.65
2022-10-08T10:36:50.513Z,59.61
2022-10-08T10:42:41.915Z,62.02
2022-10-08T10:45:27.160Z,62.43
2022-10-08T10:48:03.295Z,62.55
2022-10-08T10:50:43.405Z,62.36
2022-10-08T10:53:21.378Z,61.96
2022-10-08T10:56:02.243Z,63.33
2022-10-08T10:58:55.857Z,63.20
2022-10-08T11:01:45.531Z,63.17
2022-10-08T11:04:31.435Z,61.27
2022-10-08T11:07:40.477Z,62.53
2022-10-08T11:10:27.723Z,67.75
2022-10-08T11:13:07.545Z,68.80
2022-10-08T11:15:44.365Z,68.45
2022-10-08T11:18:37.485Z,69.69
2022-10-08T11:21:21.578Z,69.47
2022-10-08T11:24:15.537Z,68.99
2022-10-08T11:26:52.467Z,68.40
2022-10-08T11:29:41.546Z,65.88
2022-10-08T11:32:43.826Z,61.46
2022-10-08T11:35:49.944Z,59.53
2022-10-08T11:39:13.143Z,60.87
2022-10-08T11:42:39.930Z,57.68
2022-10-08T11:45:33.351Z,58.54
2022-10-08T11:48:39.752Z,57.98
2022-10-08T11:51:42.910Z,57.81
2022-10-08T11:54:20.162Z,58.30
2022-10-08T11:57:04.072Z,58.63
2022-10-08T11:59:40.024Z,57.48
2022-10-08T12:03:09.353Z,59.40
2022-10-08T12:10:56.030Z,58.74
2022-10-08T12:17:13.145Z,56.71
2022-10-08T12:20:26.704Z,57.63
2022-10-08T12:23:41.997Z,55.67
2022-10-08T12:26:30.422Z,54.75
2022-10-08T12:29:09.033Z,56.65
2022-10-08T12:31:49.600Z,55.04
2022-10-08T12:34:34.054Z,55.47
2022-10-08T12:37:26.705Z,54.28
2022-10-08T12:40:24.459Z,54.24
2022-10-08T12:43:10.313Z,55.94
2022-10-08T12:45:48.328Z,57.06
2022-10-08T12:48:33.986Z,56.30
2022-10-08T12:51:17.431Z,55.79
2022-10-08T12:53:48.797Z,56.80
2022-10-08T12:56:30.574Z,56.16
2022-10-08T12:59:06.928Z,56.27
2022-10-08T13:05:56.573Z,55.60
2022-10-08T13:12:53.167Z,56.65
2022-10-08T13:19:09.567Z,54.73
2022-10-08T13:21:42.207Z,55.03
2022-10-08T13:24:47.354Z,54.17
2022-10-08T13:27:31.150Z,53.49
2022-10-08T13:30:29.648Z,52.38
2022-10-08T13:33:04.106Z,53.50
2022-10-08T13:35:33.334Z,53.08
2022-10-08T13:38:05.308Z,53.80
2022-10-08T13:40:33.299Z,53.83
2022-10-08T13:43:44.526Z,54.41
2022-10-08T13:46:15.846Z,55.09
2022-10-08T13:48:44.126Z,55.83
2022-10-08T13:51:12.560Z,55.70
2022-10-08T13:53:42.258Z,55.27
2022-10-08T13:56:11.329Z,52.96
2022-10-08T13:58:41.880Z,53.02
2022-10-08T14:01:16.383Z,52.05
2022-10-08T14:03:49.163Z,52.04
2022-10-08T14:06:32.610Z,50.83
2022-10-08T14:09:11.223Z,51.26
2022-10-08T14:12:05.349Z,51.37
2022-10-08T14:14:34.684Z,51.15
2022-10-08T14:17:03.324Z,51.14
2022-10-08T14:19:31.999Z,48.58
2022-10-08T14:22:01.120Z,48.24
2022-10-08T14:24:32.051Z,47.42
2022-10-08T14:27:08.494Z,47.66
2022-10-08T14:29:46.836Z,48.33
2022-10-08T14:32:21.600Z,48.78
2022-10-08T14:35:36.398Z,48.41
2022-10-08T14:41:17.943Z,48.07
2022-10-08T14:43:47.209Z,47.11
2022-10-08T14:46:46.712Z,46.52
2022-10-08T14:49:14.935Z,47.26
2022-10-08T14:51:43.366Z,46.84
2022-10-08T14:54:11.970Z,46.38
2022-10-08T14:56:42.078Z,46.94
2022-10-08T14:59:10.520Z,47.44
2022-10-08T15:01:49.237Z,48.10
2022-10-08T15:04:42.906Z,44.78
2022-10-08T15:07:14.194Z,39.85
2022-10-08T15:09:50.587Z,38.26
2022-10-08T15:12:28.965Z,34.12
2022-10-08T15:14:57.418Z,32.08
2022-10-08T15:17:26.794Z,32.62
2022-10-08T15:19:54.854Z,30.94
2022-10-08T15:22:22.758Z,30.11
2022-10-08T15:24:50.581Z,32.55
2022-10-08T15:27:20.747Z,31.13
2022-10-08T15:29:49.142Z,29.92
2022-10-08T15:32:16.935Z,29.49
2022-10-08T15:34:46.053Z,28.13
2022-10-08T15:37:14.598Z,28.51
2022-10-08T15:39:42.863Z,27.66
2022-10-08T15:42:12.324Z,29.64
2022-10-08T15:44:40.124Z,31.87
2022-10-08T15:47:11.542Z,32.61
2022-10-08T15:49:41.710Z,34.55
2022-10-08T15:52:13.748Z,40.15
2022-10-08T15:54:43.121Z,43.73
2022-10-08T15:57:13.203Z,47.39
2022-10-08T15:59:49.986Z,49.89
2022-10-08T16:02:20.458Z,52.25
2022-10-08T16:04:52.475Z,54.29
2022-10-08T16:07:22.823Z,57.74
2022-10-08T16:09:50.831Z,56.78
2022-10-08T16:12:18.809Z,58.04
2022-10-08T16:14:48.000Z,59.56
2022-10-08T16:17:15.862Z,59.58
2022-10-08T16:19:43.939Z,59.84
2022-10-08T16:22:11.900Z,58.71
2022-10-08T16:24:41.354Z,59.15
2022-10-08T16:27:09.277Z,59.05
2022-10-08T16:29:37.159Z,59.39
2022-10-08T16:32:05.230Z,59.39
2022-10-08T16:34:33.286Z,60.43
2022-10-08T16:37:02.259Z,61.83
2022-10-08T16:39:30.458Z,61.55
2022-10-08T16:42:03.124Z,62.22
2022-10-08T16:44:32.048Z,61.45
2022-10-08T16:47:00.363Z,61.88
2022-10-08T16:49:30.159Z,63.01
2022-10-08T16:52:01.308Z,61.75
2022-10-08T16:54:30.074Z,61.80
2022-10-08T16:57:00.065Z,63.45
2022-10-08T16:59:29.947Z,63.36
2022-10-08T17:02:02.749Z,63.29
2022-10-08T17:04:41.788Z,62.87
2022-10-08T17:07:11.193Z,64.14
2022-10-08T17:09:42.684Z,66.73
2022-10-08T17:12:20.977Z,66.13
2022-10-08T17:14:50.883Z,66.06
2022-10-08T17:17:20.179Z,67.51
2022-10-08T17:19:49.105Z,67.32
2022-10-08T17:22:24.948Z,66.85
2022-10-08T17:24:54.395Z,67.19
2022-10-08T17:27:25.422Z,67.21
2022-10-08T17:30:02.420Z,67.63
2022-10-08T17:32:33.297Z,67.90
2022-10-08T17:35:03.305Z,68.34
2022-10-08T17:37:36.902Z,67.60
2022-10-08T17:40:15.636Z,67.25
2022-10-08T17:42:48.266Z,69.20
2022-10-08T17:45:22.404Z,68.88
2022-10-08T17:47:53.449Z,69.41
2022-10-08T17:50:26.546Z,69.85
2022-10-08T17:52:59.229Z,69.55
2022-10-08T17:55:29.270Z,70.10
2022-10-08T17:58:00.530Z,71.96
2022-10-08T18:00:30.407Z,74.57
2022-10-08T18:03:02.214Z,75.98
2022-10-08T18:05:31.430Z,77.07
2022-10-08T18:08:24.960Z,78.62
2022-10-08T18:10:54.825Z,79.27
2022-10-08T18:13:29.165Z,78.44
2022-10-08T18:16:13.252Z,78.51
2022-10-08T18:18:43.923Z,79.26
2022-10-08T18:21:13.882Z,79.88
2022-10-08T18:23:44.143Z,81.50
2022-10-08T18:26:21.009Z,81.00
2022-10-08T18:28:53.179Z,80.59
2022-10-08T18:31:23.171Z,80.39
2022-10-08T18:33:55.548Z,81.17
2022-10-08T18:36:26.753Z,81.80
2022-10-08T18:39:02.505Z,82.81
2022-10-08T18:41:32.997Z,83.45
2022-10-08T18:44:06.148Z,83.82
2022-10-08T18:46:35.895Z,84.42
2022-10-08T18:49:04.658Z,85.41
2022-10-08T18:51:34.318Z,85.31
2022-10-08T18:54:02.436Z,85.58
2022-10-08T18:56:34.430Z,85.20
2022-10-08T18:59:05.712Z,84.68
2022-10-08T19:01:36.530Z,85.57
2022-10-08T19:04:06.092Z,85.63
2022-10-08T19:06:36.279Z,84.79
2022-10-08T19:09:05.912Z,84.88
2022-10-08T19:11:37.693Z,85.34
2022-10-08T19:14:11.967Z,86.11
2022-10-08T19:16:41.539Z,86.77
2022-10-08T19:19:13.502Z,86.82
2022-10-08T19:21:41.520Z,87.26
2022-10-08T19:24:13.531Z,87.84
2022-10-08T19:26:41.332Z,86.93
2022-10-08T19:29:15.254Z,87.81
2022-10-08T19:31:43.837Z,88.29
2022-10-08T19:34:14.708Z,88.14
2022-10-08T19:36:42.645Z,88.98
2022-10-08T19:39:13.420Z,88.37
2022-10-08T19:41:42.910Z,88.86
2022-10-08T19:44:12.714Z,88.39
2022-10-08T19:46:40.676Z,89.04
2022-10-08T19:49:09.841Z,89.14
2022-10-08T19:51:38.553Z,89.21
2022-10-08T19:54:06.643Z,89.28
2022-10-08T19:56:35.801Z,89.39
2022-10-08T19:59:05.295Z,88.77
2022-10-08T20:01:37.393Z,88.64
2022-10-08T20:04:08.583Z,89.04
2022-10-08T20:06:39.913Z,89.11
2022-10-08T20:09:12.184Z,88.73
2022-10-08T20:11:41.528Z,87.97
2022-10-08T20:14:09.644Z,88.29
2022-10-08T20:16:41.131Z,87.81
2022-10-08T20:19:14.779Z,87.99
2022-10-08T20:21:42.962Z,88.93
2022-10-08T20:24:11.433Z,88.36
2022-10-08T20:26:41.070Z,87.96
2022-10-08T20:29:11.341Z,87.36
2022-10-08T20:31:42.348Z,86.85
2022-10-08T20:34:13.632Z,87.72
2022-10-08T20:36:42.082Z,87.84
2022-10-08T20:39:12.048Z,87.71
2022-10-08T20:41:40.429Z,88.00
2022-10-08T20:44:09.115Z,86.41
2022-10-08T20:46:38.063Z,86.29
2022-10-08T20:49:08.134Z,86.46
2022-10-08T20:51:36.103Z,86.77
2022-10-08T20:54:06.765Z,87.56
2022-10-08T20:56:39.902Z,87.10
2022-10-08T20:59:08.787Z,87.60
2022-10-08T21:01:41.348Z,87.88
2022-10-08T21:04:11.393Z,87.59
2022-10-08T21:06:41.910Z,87.74
2022-10-08T21:09:10.390Z,88.31
2022-10-08T21:11:39.657Z,88.96
2022-10-08T21:14:10.801Z,89.77
2022-10-08T21:16:40.978Z,89.14
2022-10-08T21:19:14.988Z,89.03
2022-10-08T21:21:43.392Z,88.93
2022-10-08T21:24:11.925Z,89.25
2022-10-08T21:26:42.120Z,90.34
2022-10-08T21:29:12.714Z,90.61
2022-10-08T21:31:42.369Z,90.16
2022-10-08T21:34:14.138Z,90.24
2022-10-08T21:36:44.920Z,90.34
2022-10-08T21:39:16.886Z,90.63
2022-10-08T21:41:45.547Z,90.58
2022-10-08T21:44:14.324Z,91.18
2022-10-08T21:46:43.387Z,91.10
2022-10-08T21:49:14.909Z,91.35
2022-10-08T21:51:43.247Z,91.45
2022-10-08T21:54:11.965Z,90.38
2022-10-08T21:56:42.270Z,91.21
2022-10-08T21:59:14.491Z,90.89
2022-10-08T22:01:44.677Z,91.43
2022-10-08T22:04:15.571Z,91.11
2022-10-08T22:06:46.119Z,90.99
2022-10-08T22:09:17.244Z,91.76
2022-10-08T22:11:45.665Z,91.86
2022-10-08T22:14:13.765Z,92.48
2022-10-08T22:16:42.853Z,92.29
2022-10-08T22:19:11.000Z,93.07
2022-10-08T22:21:40.376Z,92.30
2022-10-08T22:24:08.551Z,92.76
2022-10-08T22:26:38.521Z,92.37
2022-10-08T22:29:08.053Z,92.26
2022-10-08T22:31:36.267Z,93.03
2022-10-08T22:34:05.090Z,92.89
2022-10-08T22:36:34.685Z,93.08
2022-10-08T22:39:04.087Z,93.20
2022-10-08T22:41:33.210Z,94.09
2022-10-08T22:44:02.649Z,94.98
2022-10-08T22:46:32.368Z,94.41
2022-10-08T22:49:01.911Z,95.22
2022-10-08T22:51:30.867Z,94.57
2022-10-08T22:53:59.756Z,94.89
2022-10-08T22:56:32.101Z,95.10
2022-10-08T22:59:00.948Z,95.42
2022-10-08T23:01:30.306Z,94.92
2022-10-08T23:03:58.900Z,94.75
2022-10-08T23:06:29.538Z,94.78
2022-10-08T23:08:58.927Z,95.39
2022-10-08T23:11:27.408Z,94.87
2022-10-08T23:13:58.772Z,93.69
2022-10-08T23:16:28.287Z,93.38
2022-10-08T23:18:58.032Z,94.31
2022-10-08T23:21:26.455Z,94.30
2022-10-08T23:23:54.926Z,94.63
2022-10-08T23:26:23.938Z,95.09
2022-10-08T23:28:53.024Z,94.62
2022-10-08T23:31:24.136Z,94.69
2022-10-08T23:33:53.810Z,94.61
2022-10-08T23:36:24.059Z,94.56
2022-10-08T23:38:52.758Z,95.21
2022-10-08T23:41:20.754Z,96.15
2022-10-08T23:43:50.963Z,96.15
2022-10-08T23:46:22.081Z,95.40
2022-10-08T23:48:52.199Z,95.02
2022-10-08T23:51:21.491Z,95.22
2022-10-08T23:53:49.873Z,95.22
2022-10-08T23:56:18.047Z,95.00
2022-10-08T23:58:45.956Z,94.61
